createdAt,value
2019-04-30T00:00:06.345Z,11.29
2019-04-30T00:02:57.277Z,11.24
2019-04-30T00:05:30.550Z,11.19
2019-04-30T00:08:05.804Z,11.16
2019-04-30T00:10:41.143Z,11.17
2019-04-30T00:13:17.530Z,11.17
2019-04-30T00:15:48.052Z,11.16
2019-04-30T00:18:20.274Z,11.12
2019-04-30T00:20:52.226Z,11.07
2019-04-30T00:23:27.117Z,11.03
2019-04-30T00:26:05.123Z,10.99
2019-04-30T00:28:31.726Z,10.94
2019-04-30T00:31:05.477Z,10.91
2019-04-30T00:33:37.536Z,10.97
2019-04-30T00:36:09.569Z,10.99
2019-04-30T00:38:41.866Z,10.97
2019-04-30T00:41:15.562Z,11.02
2019-04-30T00:43:50.879Z,11.10
2019-04-30T00:46:25.012Z,11.08
2019-04-30T00:49:08.317Z,11.04
2019-04-30T00:51:31.548Z,11.03
2019-04-30T00:54:05.520Z,11.00
2019-04-30T00:56:37.289Z,10.96
2019-04-30T00:59:10.458Z,10.92
2019-04-30T01:02:00.769Z,10.86
2019-04-30T01:04:37.479Z,10.83
2019-04-30T01:07:10.268Z,10.85
2019-04-30T01:09:46.572Z,10.81
2019-04-30T01:12:17.473Z,10.76
2019-04-30T01:14:50.013Z,10.75
2019-04-30T01:17:21.990Z,10.69
2019-04-30T01:19:54.648Z,10.61
2019-04-30T01:22:31.161Z,10.56
2019-04-30T01:25:08.043Z,10.51
2019-04-30T01:27:34.753Z,10.52
2019-04-30T01:30:08.711Z,10.48
2019-04-30T01:32:40.749Z,10.44
2019-04-30T01:35:13.109Z,10.42
2019-04-30T01:37:44.028Z,10.38
2019-04-30T01:40:16.068Z,10.32
2019-04-30T01:42:48.545Z,10.26
2019-04-30T01:45:23.143Z,10.16
2019-04-30T01:47:53.069Z,10.06
2019-04-30T01:50:24.168Z,10.01
2019-04-30T01:52:59.123Z,9.92
2019-04-30T01:55:53.209Z,9.89
2019-04-30T01:58:42.321Z,9.87
2019-04-30T02:01:18.993Z,9.85
2019-04-30T02:03:51.590Z,9.86
2019-04-30T02:06:23.549Z,9.89
2019-04-30T02:08:55.576Z,9.88
2019-04-30T02:11:28.886Z,9.92
2019-04-30T02:14:00.979Z,9.96
2019-04-30T02:16:32.909Z,9.98
2019-04-30T02:19:05.199Z,9.97
2019-04-30T02:21:38.565Z,9.95
2019-04-30T02:24:11.233Z,9.94
2019-04-30T02:26:43.399Z,9.93
2019-04-30T02:29:15.277Z,9.94
2019-04-30T02:31:47.318Z,9.88
2019-04-30T02:34:30.374Z,9.80
2019-04-30T02:37:11.327Z,9.70
2019-04-30T02:39:43.270Z,9.59
2019-04-30T02:42:15.665Z,9.53
2019-04-30T02:44:50.404Z,9.50
2019-04-30T02:47:24.988Z,9.49
2019-04-30T02:50:11.576Z,9.47
2019-04-30T02:52:33.274Z,9.43
2019-04-30T02:55:09.472Z,9.41
2019-04-30T02:57:40.899Z,9.36
2019-04-30T03:00:20.021Z,9.42
2019-04-30T03:02:50.915Z,9.41
2019-04-30T03:05:22.855Z,9.42
2019-04-30T03:07:55.105Z,9.41
2019-04-30T03:10:30.357Z,9.41
2019-04-30T03:13:02.937Z,9.42
2019-04-30T03:15:34.958Z,9.42
2019-04-30T03:18:23.089Z,9.36
2019-04-30T03:21:12.353Z,9.32
2019-04-30T03:23:44.294Z,9.29
2019-04-30T03:26:16.314Z,9.31
2019-04-30T03:28:49.309Z,9.31
2019-04-30T03:31:22.615Z,9.26
2019-04-30T03:33:54.725Z,9.25
2019-04-30T03:36:27.257Z,9.26
2019-04-30T03:38:59.991Z,9.27
2019-04-30T03:41:33.444Z,9.26
2019-04-30T03:44:17.227Z,9.27
2019-04-30T03:46:40.215Z,9.28
2019-04-30T03:49:13.376Z,9.32
2019-04-30T03:51:45.784Z,9.37
2019-04-30T03:54:19.303Z,9.39
2019-04-30T03:56:53.255Z,9.41
2019-04-30T03:59:25.235Z,9.46
2019-04-30T04:02:21.893Z,9.52
2019-04-30T04:05:20.271Z,9.56
2019-04-30T04:08:22.979Z,9.62
2019-04-30T04:11:20.735Z,9.70
2019-04-30T04:13:53.036Z,9.75
2019-04-30T04:16:25.705Z,9.81
2019-04-30T04:18:59.856Z,9.85
2019-04-30T04:21:31.327Z,9.93
2019-04-30T04:24:03.399Z,10.00
2019-04-30T04:26:35.353Z,10.09
2019-04-30T04:29:09.435Z,10.16
2019-04-30T04:31:41.104Z,10.17
2019-04-30T04:34:13.134Z,10.20
2019-04-30T04:36:45.173Z,10.18
2019-04-30T04:39:19.901Z,10.21
2019-04-30T04:41:50.984Z,10.27
2019-04-30T04:44:22.983Z,10.30
2019-04-30T04:46:55.153Z,10.33
2019-04-30T04:49:30.312Z,10.39
2019-04-30T04:52:01.334Z,10.50
2019-04-30T04:54:33.467Z,10.55
2019-04-30T04:57:14.888Z,10.63
2019-04-30T04:59:42.473Z,10.69
2019-04-30T05:02:32.811Z,10.80
2019-04-30T05:05:04.399Z,10.88
2019-04-30T05:07:35.335Z,11.00
2019-04-30T05:10:09.180Z,11.02
2019-04-30T05:12:41.573Z,11.04
2019-04-30T05:15:13.997Z,11.13
2019-04-30T05:17:46.233Z,11.17
2019-04-30T05:20:19.277Z,11.25
2019-04-30T05:22:52.492Z,11.28
2019-04-30T05:25:24.664Z,11.35
2019-04-30T05:27:58.586Z,11.44
2019-04-30T05:30:30.453Z,11.50
2019-04-30T05:33:02.413Z,11.56
2019-04-30T05:35:34.553Z,11.59
2019-04-30T05:38:06.653Z,11.68
2019-04-30T05:40:42.478Z,11.76
2019-04-30T05:43:13.634Z,11.79
2019-04-30T05:45:45.615Z,11.87
2019-04-30T05:48:18.604Z,11.92
2019-04-30T05:50:51.822Z,11.92
2019-04-30T05:53:23.964Z,12.00
2019-04-30T05:55:55.392Z,12.09
2019-04-30T05:58:29.772Z,12.16
2019-04-30T06:01:01.121Z,12.20
2019-04-30T06:03:33.497Z,12.25
2019-04-30T06:06:05.803Z,12.22
2019-04-30T06:09:06.658Z,12.29
2019-04-30T06:11:53.949Z,12.39
2019-04-30T06:14:31.893Z,12.46
2019-04-30T06:17:09.907Z,12.65
2019-04-30T06:19:42.194Z,12.86
2019-04-30T06:22:13.842Z,12.99
2019-04-30T06:24:49.414Z,13.16
2019-04-30T06:27:29.097Z,13.79
2019-04-30T06:30:01.842Z,14.30
2019-04-30T06:32:35.053Z,14.47
2019-04-30T06:35:09.573Z,14.79
2019-04-30T06:37:41.773Z,15.04
2019-04-30T06:40:13.661Z,15.26
2019-04-30T06:42:46.053Z,15.22
2019-04-30T06:45:19.177Z,15.36
2019-04-30T06:47:52.573Z,15.18
2019-04-30T06:50:24.643Z,14.82
2019-04-30T06:53:00.967Z,14.47
2019-04-30T06:55:31.068Z,14.35
2019-04-30T06:58:11.971Z,14.37
2019-04-30T07:00:39.976Z,14.46
2019-04-30T07:03:12.034Z,14.71
2019-04-30T07:05:42.951Z,15.04
2019-04-30T07:08:39.504Z,15.13
2019-04-30T07:11:24.993Z,15.43
2019-04-30T07:13:57.054Z,15.68
2019-04-30T07:16:29.818Z,16.04
2019-04-30T07:19:02.321Z,16.08
2019-04-30T07:21:36.412Z,16.31
2019-04-30T07:24:09.412Z,16.27
2019-04-30T07:26:41.674Z,16.17
2019-04-30T07:29:13.879Z,16.14
2019-04-30T07:31:46.053Z,16.16
2019-04-30T07:34:19.654Z,16.10
2019-04-30T07:37:10.880Z,16.24
2019-04-30T07:39:31.674Z,16.47
2019-04-30T07:41:59.998Z,16.71
2019-04-30T07:44:36.457Z,16.88
2019-04-30T07:47:06.253Z,17.00
2019-04-30T07:49:49.681Z,17.02
2019-04-30T07:52:12.701Z,17.44
2019-04-30T07:54:51.568Z,18.17
2019-04-30T07:57:22.243Z,18.83
2019-04-30T07:59:54.417Z,18.69
2019-04-30T08:02:29.747Z,18.52
2019-04-30T08:05:20.933Z,18.97
2019-04-30T08:07:53.022Z,19.37
2019-04-30T08:10:24.432Z,19.50
2019-04-30T08:13:08.361Z,19.22
2019-04-30T08:15:30.253Z,19.40
2019-04-30T08:18:05.724Z,19.35
2019-04-30T08:20:36.153Z,19.53
2019-04-30T08:23:20.293Z,19.67
2019-04-30T08:25:39.633Z,19.87
2019-04-30T08:28:11.573Z,20.07
2019-04-30T08:30:43.714Z,20.15
2019-04-30T08:33:16.277Z,20.37
2019-04-30T08:35:49.898Z,20.43
2019-04-30T08:38:22.036Z,20.41
2019-04-30T08:40:58.110Z,20.47
2019-04-30T08:43:29.264Z,20.31
2019-04-30T08:46:02.023Z,20.62
2019-04-30T08:48:47.921Z,21.08
2019-04-30T08:51:09.597Z,21.48
2019-04-30T08:53:41.489Z,21.67
2019-04-30T08:56:13.641Z,21.11
2019-04-30T08:58:45.763Z,20.62
2019-04-30T09:01:19.601Z,20.89
2019-04-30T09:03:52.293Z,20.83
2019-04-30T09:06:26.334Z,20.37
2019-04-30T09:09:12.222Z,20.19
2019-04-30T09:11:53.078Z,19.69
2019-04-30T09:14:18.741Z,19.30
2019-04-30T09:16:52.020Z,19.08
2019-04-30T09:19:24.234Z,18.72
2019-04-30T09:21:55.272Z,18.70
2019-04-30T09:24:30.692Z,19.06
2019-04-30T09:27:00.860Z,20.40
2019-04-30T09:29:32.953Z,20.89
2019-04-30T09:32:04.159Z,20.76
2019-04-30T09:34:36.143Z,20.47
2019-04-30T09:37:08.703Z,20.67
2019-04-30T09:39:40.713Z,20.60
2019-04-30T09:42:13.723Z,20.28
2019-04-30T09:44:45.963Z,20.00
2019-04-30T09:47:20.064Z,20.05
2019-04-30T09:49:52.554Z,20.19
2019-04-30T09:52:24.583Z,20.14
2019-04-30T09:54:59.266Z,20.03
2019-04-30T09:57:31.637Z,19.79
2019-04-30T10:00:02.739Z,19.43
2019-04-30T10:02:36.234Z,19.25
2019-04-30T10:05:07.597Z,19.22
2019-04-30T10:07:39.893Z,19.16
2019-04-30T10:10:12.792Z,19.00
2019-04-30T10:12:43.532Z,18.98
2019-04-30T10:15:28.942Z,19.02
2019-04-30T10:18:01.302Z,18.96
2019-04-30T10:20:44.003Z,19.29
2019-04-30T10:23:15.957Z,19.54
2019-04-30T10:25:48.435Z,19.81
2019-04-30T10:28:20.593Z,19.83
2019-04-30T10:30:52.555Z,20.25
2019-04-30T10:33:23.712Z,20.42
2019-04-30T10:35:55.613Z,20.27
2019-04-30T10:38:26.683Z,20.06
2019-04-30T10:40:58.814Z,19.99
2019-04-30T10:43:32.017Z,19.95
2019-04-30T10:46:05.063Z,19.73
2019-04-30T10:48:37.193Z,19.65
2019-04-30T10:51:09.931Z,20.48
2019-04-30T10:53:43.256Z,20.82
2019-04-30T10:56:15.643Z,21.64
2019-04-30T10:58:48.032Z,22.03
2019-04-30T11:01:20.114Z,21.89
2019-04-30T11:03:53.127Z,21.36
2019-04-30T11:06:38.142Z,20.54
2019-04-30T11:12:09.523Z,21.52
2019-04-30T11:14:42.131Z,22.55
2019-04-30T11:17:20.079Z,23.26
2019-04-30T11:22:31.958Z,23.79
2019-04-30T11:25:04.638Z,23.27
2019-04-30T11:27:50.171Z,22.53
2019-04-30T11:30:26.779Z,21.44
2019-04-30T11:33:08.153Z,20.72
2019-04-30T11:35:40.443Z,20.24
2019-04-30T11:38:12.473Z,19.99
2019-04-30T11:40:43.532Z,20.95
2019-04-30T11:43:15.334Z,22.06
2019-04-30T11:46:15.032Z,22.19
2019-04-30T11:48:48.888Z,21.68
2019-04-30T11:51:21.125Z,21.10
2019-04-30T11:53:54.293Z,21.09
2019-04-30T11:56:26.173Z,20.90
2019-04-30T11:58:58.977Z,20.87
2019-04-30T12:01:32.432Z,20.55
2019-04-30T12:04:04.923Z,20.55
2019-04-30T12:06:37.133Z,20.69
2019-04-30T12:09:21.483Z,20.81
2019-04-30T12:11:55.383Z,21.00
2019-04-30T12:14:29.631Z,22.19
2019-04-30T12:17:02.603Z,22.70
2019-04-30T12:19:33.811Z,22.48
2019-04-30T12:22:05.724Z,21.66
2019-04-30T12:24:38.824Z,21.21
2019-04-30T12:27:12.374Z,20.85
2019-04-30T12:29:49.551Z,21.11
2019-04-30T12:32:22.753Z,20.99
2019-04-30T12:34:59.297Z,20.60
2019-04-30T12:37:39.503Z,20.31
2019-04-30T12:40:25.861Z,20.16
2019-04-30T12:42:48.893Z,20.48
2019-04-30T12:45:22.001Z,21.08
2019-04-30T12:47:57.981Z,20.89
2019-04-30T12:50:40.773Z,20.24
2019-04-30T12:53:18.875Z,19.77
2019-04-30T12:56:27.163Z,19.46
2019-04-30T12:58:57.014Z,19.23
2019-04-30T13:01:31.750Z,20.22
2019-04-30T13:04:01.542Z,20.27
2019-04-30T13:06:36.145Z,20.17
2019-04-30T13:09:13.373Z,20.08
2019-04-30T13:11:46.745Z,19.89
2019-04-30T13:14:20.499Z,19.63
2019-04-30T13:16:52.855Z,19.47
2019-04-30T13:19:25.015Z,20.11
2019-04-30T13:21:58.656Z,21.05
2019-04-30T13:24:37.743Z,21.82
2019-04-30T13:27:10.913Z,21.66
2019-04-30T13:29:51.793Z,21.08
2019-04-30T13:32:30.092Z,20.69
2019-04-30T13:35:00.953Z,21.18
2019-04-30T13:37:54.523Z,21.65
2019-04-30T13:40:49.049Z,22.02
2019-04-30T13:43:41.633Z,22.19
2019-04-30T13:46:13.693Z,21.88
2019-04-30T13:48:44.832Z,22.29
2019-04-30T13:51:18.293Z,22.03
2019-04-30T13:53:53.463Z,21.50
2019-04-30T13:56:25.462Z,21.08
2019-04-30T13:58:58.633Z,20.97
2019-04-30T14:01:30.371Z,21.18
2019-04-30T14:04:21.284Z,21.56
2019-04-30T14:07:18.993Z,21.66
2019-04-30T14:09:52.486Z,21.65
2019-04-30T14:12:24.982Z,21.65
2019-04-30T14:14:57.043Z,21.72
2019-04-30T14:17:29.626Z,22.10
2019-04-30T14:20:01.654Z,22.37
2019-04-30T14:22:35.093Z,22.15
2019-04-30T14:25:10.274Z,22.17
2019-04-30T14:27:51.834Z,22.48
2019-04-30T14:30:16.861Z,22.60
2019-04-30T14:32:50.735Z,22.25
2019-04-30T14:35:23.353Z,21.79
2019-04-30T14:37:55.356Z,21.15
2019-04-30T14:40:27.579Z,20.90
2019-04-30T14:43:12.572Z,20.65
2019-04-30T14:46:03.960Z,20.95
2019-04-30T14:48:43.024Z,20.94
2019-04-30T14:51:16.484Z,21.32
2019-04-30T14:54:04.731Z,21.72
2019-04-30T14:56:59.444Z,21.72
2019-04-30T15:00:01.985Z,21.83
2019-04-30T15:02:39.873Z,21.79
2019-04-30T15:05:12.315Z,21.84
2019-04-30T15:07:44.464Z,21.97
2019-04-30T15:10:18.372Z,21.95
2019-04-30T15:12:50.185Z,21.30
2019-04-30T15:15:22.573Z,21.03
2019-04-30T15:17:54.514Z,20.89
2019-04-30T15:20:26.883Z,20.65
2019-04-30T15:23:19.104Z,20.52
2019-04-30T15:25:50.327Z,20.68
2019-04-30T15:28:22.363Z,20.75
2019-04-30T15:30:54.333Z,20.87
2019-04-30T15:33:45.273Z,21.04
2019-04-30T15:36:19.250Z,20.93
2019-04-30T15:39:09.054Z,20.69
2019-04-30T15:41:44.213Z,20.59
2019-04-30T15:44:16.373Z,20.29
2019-04-30T15:46:48.112Z,20.20
2019-04-30T15:49:22.622Z,20.09
2019-04-30T15:51:55.284Z,20.12
2019-04-30T15:54:29.245Z,19.93
2019-04-30T15:57:01.843Z,19.81
2019-04-30T15:59:44.133Z,19.65
2019-04-30T16:02:35.673Z,19.51
2019-04-30T16:05:25.373Z,19.48
2019-04-30T16:08:08.895Z,19.40
2019-04-30T16:11:08.108Z,19.33
2019-04-30T16:13:58.588Z,19.31
2019-04-30T16:16:35.034Z,19.20
2019-04-30T16:19:09.156Z,19.06
2019-04-30T16:21:41.393Z,18.96
2019-04-30T16:24:13.493Z,18.76
2019-04-30T16:26:49.502Z,18.71
2019-04-30T16:29:19.774Z,18.56
2019-04-30T16:31:51.844Z,18.41
2019-04-30T16:34:24.343Z,18.20
2019-04-30T16:36:59.049Z,18.09
2019-04-30T16:39:31.113Z,17.97
2019-04-30T16:42:03.055Z,17.87
2019-04-30T16:44:35.164Z,17.79
2019-04-30T16:47:14.645Z,17.71
2019-04-30T16:49:46.419Z,17.60
2019-04-30T16:52:19.122Z,17.52
2019-04-30T16:54:51.173Z,17.38
2019-04-30T16:57:23.195Z,17.24
2019-04-30T16:59:55.264Z,17.13
2019-04-30T17:02:29.697Z,17.06
2019-04-30T17:05:23.474Z,16.98
2019-04-30T17:08:09.417Z,16.84
2019-04-30T17:11:15.632Z,16.68
2019-04-30T17:13:54.144Z,16.59
2019-04-30T17:16:26.274Z,16.52
2019-04-30T17:18:58.956Z,16.44
2019-04-30T17:21:30.934Z,16.24
2019-04-30T17:24:03.386Z,16.16
2019-04-30T17:26:36.072Z,16.04
2019-04-30T17:29:09.608Z,15.89
2019-04-30T17:31:41.796Z,15.83
2019-04-30T17:34:14.004Z,15.81
2019-04-30T17:36:46.233Z,15.66
2019-04-30T17:39:19.992Z,15.50
2019-04-30T17:41:51.983Z,15.29
2019-04-30T17:44:22.992Z,15.18
2019-04-30T17:46:54.743Z,14.92
2019-04-30T17:49:30.954Z,14.84
2019-04-30T17:52:02.973Z,14.74
2019-04-30T17:54:36.006Z,14.62
2019-04-30T17:57:10.428Z,14.49
2019-04-30T17:59:40.714Z,14.28
2019-04-30T18:02:14.603Z,14.16
2019-04-30T18:04:47.144Z,14.06
2019-04-30T18:07:19.794Z,13.98
2019-04-30T18:09:54.345Z,13.77
2019-04-30T18:12:27.007Z,13.65
2019-04-30T18:15:00.027Z,13.59
2019-04-30T18:17:32.153Z,13.55
2019-04-30T18:20:16.593Z,13.48
2019-04-30T18:23:13.804Z,13.43
2019-04-30T18:25:49.844Z,13.36
2019-04-30T18:28:22.034Z,13.24
2019-04-30T18:30:54.273Z,13.17
2019-04-30T18:33:25.492Z,13.10
2019-04-30T18:35:59.682Z,12.95
2019-04-30T18:38:32.813Z,12.85
2019-04-30T18:41:04.111Z,12.70
2019-04-30T18:43:38.518Z,12.44
2019-04-30T18:46:11.013Z,12.32
2019-04-30T18:48:43.183Z,12.26
2019-04-30T18:51:30.610Z,12.15
2019-04-30T18:53:49.613Z,12.02
2019-04-30T18:56:22.145Z,11.90
2019-04-30T18:58:54.323Z,11.79
2019-04-30T19:01:26.792Z,11.69
2019-04-30T19:04:01.177Z,11.59
2019-04-30T19:06:33.215Z,11.48
2019-04-30T19:09:40.108Z,11.39
2019-04-30T19:12:43.297Z,11.25
2019-04-30T19:15:59.137Z,11.21
2019-04-30T19:18:36.633Z,11.28
2019-04-30T19:21:10.003Z,11.36
2019-04-30T19:23:42.634Z,11.38
2019-04-30T19:26:16.343Z,11.39
2019-04-30T19:28:49.305Z,11.31
2019-04-30T19:31:20.115Z,11.15
2019-04-30T19:33:52.364Z,11.00
2019-04-30T19:36:36.520Z,10.93
2019-04-30T19:38:59.782Z,10.85
2019-04-30T19:41:32.298Z,10.79
2019-04-30T19:44:03.175Z,10.69
2019-04-30T19:46:35.904Z,10.59
2019-04-30T19:49:09.817Z,10.52
2019-04-30T19:51:42.013Z,10.48
2019-04-30T19:54:13.943Z,10.41
2019-04-30T19:56:46.174Z,10.38
2019-04-30T19:59:19.363Z,10.32
2019-04-30T20:01:51.605Z,10.28
2019-04-30T20:04:33.195Z,10.21
2019-04-30T20:06:59.128Z,10.14
2019-04-30T20:09:31.552Z,10.11
2019-04-30T20:12:03.721Z,10.08
2019-04-30T20:14:36.734Z,10.04
2019-04-30T20:17:09.006Z,9.98
2019-04-30T20:19:41.053Z,9.87
2019-04-30T20:22:13.582Z,9.80
2019-04-30T20:24:46.283Z,9.75
2019-04-30T20:27:19.058Z,9.74
2019-04-30T20:29:52.245Z,9.78
2019-04-30T20:32:33.901Z,9.76
2019-04-30T20:34:59.787Z,9.74
2019-04-30T20:37:31.923Z,9.69
2019-04-30T20:40:09.616Z,9.64
2019-04-30T20:42:41.473Z,9.55
2019-04-30T20:45:13.634Z,9.53
2019-04-30T20:47:45.755Z,9.51
2019-04-30T20:50:16.914Z,9.46
2019-04-30T20:52:49.083Z,9.36
2019-04-30T20:55:22.299Z,9.33
2019-04-30T20:57:53.352Z,9.29
2019-04-30T21:00:25.955Z,9.23
2019-04-30T21:02:59.827Z,9.23
2019-04-30T21:05:31.945Z,9.24
2019-04-30T21:08:04.192Z,9.27
2019-04-30T21:10:36.563Z,9.23
2019-04-30T21:13:10.935Z,9.20
2019-04-30T21:15:43.583Z,9.15
2019-04-30T21:18:15.773Z,9.11
2019-04-30T21:20:49.672Z,9.09
2019-04-30T21:23:22.754Z,9.14
2019-04-30T21:25:55.223Z,9.16
2019-04-30T21:28:29.526Z,9.18
2019-04-30T21:31:19.733Z,9.17
2019-04-30T21:33:54.353Z,9.17
2019-04-30T21:36:28.503Z,9.17
2019-04-30T21:39:00.683Z,9.17
2019-04-30T21:41:34.360Z,9.08
2019-04-30T21:44:06.413Z,9.03
2019-04-30T21:46:39.389Z,9.03
2019-04-30T21:49:10.883Z,9.02
2019-04-30T21:51:42.843Z,9.05
2019-04-30T21:54:14.990Z,9.03
2019-04-30T21:56:47.026Z,9.05
2019-04-30T21:59:24.637Z,9.04
2019-04-30T22:01:52.793Z,9.04
2019-04-30T22:04:23.911Z,9.08
2019-04-30T22:06:55.873Z,9.08
2019-04-30T22:09:30.332Z,9.09
2019-04-30T22:12:02.355Z,9.08
2019-04-30T22:14:39.201Z,9.10
2019-04-30T22:17:10.893Z,9.12
2019-04-30T22:19:44.263Z,9.09
2019-04-30T22:22:15.371Z,9.07
2019-04-30T22:24:47.353Z,8.99
2019-04-30T22:27:20.033Z,8.91
2019-04-30T22:29:51.311Z,8.79
2019-04-30T22:32:23.351Z,8.62
2019-04-30T22:47:18.637Z,8.09
2019-04-30T22:50:22.813Z,8.05
2019-04-30T22:53:28.591Z,8.02
2019-04-30T22:56:05.993Z,8.01
2019-04-30T22:58:38.783Z,7.98
2019-04-30T23:01:28.254Z,7.93
2019-04-30T23:04:04.043Z,7.89
2019-04-30T23:06:36.222Z,7.92
2019-04-30T23:09:11.673Z,8.02
2019-04-30T23:11:43.699Z,8.05
2019-04-30T23:14:16.023Z,8.14
2019-04-30T23:16:48.106Z,8.18
2019-04-30T23:19:20.063Z,8.19
2019-04-30T23:21:52.134Z,8.10
2019-04-30T23:24:24.273Z,7.95
2019-04-30T23:26:56.213Z,7.95
2019-04-30T23:29:28.333Z,8.01
2019-04-30T23:32:00.223Z,8.02
2019-04-30T23:34:32.164Z,8.04
2019-04-30T23:37:04.677Z,7.91
2019-04-30T23:39:36.618Z,7.92
2019-04-30T23:42:07.791Z,7.88
2019-04-30T23:44:39.613Z,7.87
2019-04-30T23:47:11.723Z,7.86
2019-04-30T23:49:42.851Z,7.87
2019-04-30T23:52:14.613Z,7.78
2019-04-30T23:54:46.632Z,7.72
2019-04-30T23:57:18.702Z,7.57
2019-04-30T23:59:49.692Z,7.42
